Time;durP1;ratioP1;P1;durP2;ratioP2;P2;SDS_P1;SDS_P2;PMS_P1;PMS_P2;Temp;Humidity;BMP_temperature;BMP_pressure;BME280_temperature;BME280_humidity;BME280_pressure;Samples;Min_cycle;Max_cycle;Signal;HPM_P1;HPM_P2
2022/12/07 00:01:21;;;;;;;;;;;5.10;97.30;;;;;;5091247;28;20503;-71
2022/12/07 00:03:47;;;;;;;;;;;5.10;97.00;;;;;;5079732;28;20292;-71
2022/12/07 00:06:13;;;;;;;;;;;5.10;97.10;;;;;;5087166;28;20283;-71
2022/12/07 00:08:39;;;;;;;;;;;5.10;97.10;;;;;;5076912;28;20289;-71
2022/12/07 00:11:11;;;;;;;;;;;5.20;97.10;;;;;;5067430;28;19912;-71
2022/12/07 00:13:38;;;;;;;;;;;5.20;97.10;;;;;;5067400;28;20415;-70
2022/12/07 00:16:13;;;;;;;;;;;5.10;97.00;;;;;;5087909;28;19927;-71
2022/12/07 00:18:39;;;;;;;;;;;5.10;97.10;;;;;;5087875;28;19919;-71
2022/12/07 00:21:11;;;;;;;;;;;5.20;97.10;;;;;;5087885;28;19908;-71
2022/12/07 00:23:37;;;;;;;;;;;5.20;97.10;;;;;;5069576;28;19912;-71
2022/12/07 00:26:03;;;;;;;;;;;5.20;97.10;;;;;;5087559;28;20061;-71
2022/12/07 00:28:28;;;;;;;;;;;5.20;97.00;;;;;;5087723;28;19965;-71
2022/12/07 00:30:59;;;;;;;;;;;5.20;97.10;;;;;;5087331;28;19916;-71
2022/12/07 00:33:25;;;;;;;;;;;5.20;97.10;;;;;;5066705;28;19923;-71
2022/12/07 00:35:55;;;;;;;;;;;5.20;97.10;;;;;;5086712;28;19912;-71
2022/12/07 00:38:20;;;;;;;;;;;5.20;97.20;;;;;;5087142;28;19912;-70
2022/12/07 00:40:53;;;;;;;;;;;5.10;97.10;;;;;;5086854;28;19912;-71
2022/12/07 00:43:18;;;;;;;;;;;5.20;97.10;;;;;;5087345;28;19918;-71
2022/12/07 00:45:44;;;;;;;;;;;5.20;97.10;;;;;;5087628;28;20010;-71
2022/12/07 00:48:09;;;;;;;;;;;5.20;97.30;;;;;;5088358;28;19939;-70
2022/12/07 00:50:35;;;;;;;;;;;5.20;97.10;;;;;;5087123;28;19948;-71
2022/12/07 00:53:00;;;;;;;;;;;5.20;97.10;;;;;;5086786;28;20380;-71
2022/12/07 00:55:26;;;;;;;;;;;5.20;97.10;;;;;;5069385;28;19919;-71
2022/12/07 00:57:51;;;;;;;;;;;5.20;97.10;;;;;;5087276;28;20666;-70
2022/12/07 01:00:17;;;;;;;;;;;5.20;97.10;;;;;;5087058;28;19919;-72
2022/12/07 01:02:42;;;;;;;;;;;5.20;97.20;;;;;;5086741;28;20034;-70
2022/12/07 01:05:08;;;;;;;;;;;5.20;97.10;;;;;;5094376;28;20380;-71
2022/12/07 01:07:33;;;;;;;;;;;5.20;97.10;;;;;;5106843;28;19908;-71
2022/12/07 01:09:59;;;;;;;;;;;5.20;97.20;;;;;;5086543;28;19908;-71
2022/12/07 01:12:24;;;;;;;;;;;5.20;97.10;;;;;;5086651;28;20049;-71
2022/12/07 01:14:50;;;;;;;;;;;5.20;97.20;;;;;;5086890;28;19916;-71
2022/12/07 01:17:15;;;;;;;;;;;5.20;97.10;;;;;;5087202;28;20604;-70
2022/12/07 01:19:40;;;;;;;;;;;5.20;97.10;;;;;;5086972;28;19912;-70
2022/12/07 01:22:06;;;;;;;;;;;5.20;97.10;;;;;;5088016;28;19916;-70
2022/12/07 01:24:31;;;;;;;;;;;5.20;97.10;;;;;;5087038;28;19912;-71
2022/12/07 01:26:57;;;;;;;;;;;5.20;97.10;;;;;;5086961;28;20631;-71
2022/12/07 01:29:22;;;;;;;;;;;5.20;97.10;;;;;;5068172;28;19961;-71
2022/12/07 01:31:48;;;;;;;;;;;5.20;97.10;;;;;;5086773;28;19920;-70
2022/12/07 01:34:14;;;;;;;;;;;5.20;97.10;;;;;;5086744;28;20013;-70
2022/12/07 01:36:39;;;;;;;;;;;5.20;97.10;;;;;;5087046;28;19919;-71
2022/12/07 01:39:06;;;;;;;;;;;5.20;97.20;;;;;;5099558;28;19916;-70
2022/12/07 01:41:33;;;;;;;;;;;5.20;97.20;;;;;;5106881;28;19953;-70
2022/12/07 01:44:24;;;;;;;;;;;5.20;97.20;;;;;;5107251;28;20646;-70
2022/12/07 01:47:08;;;;;;;;;;;5.20;97.20;;;;;;5102099;28;19926;-70
2022/12/07 01:49:45;;;;;;;;;;;5.30;97.20;;;;;;5107184;28;19915;-71
2022/12/07 01:52:10;;;;;;;;;;;5.30;97.20;;;;;;5095952;28;19912;-71
2022/12/07 01:54:36;;;;;;;;;;;5.30;97.30;;;;;;5088193;28;20744;-70
2022/12/07 01:57:03;;;;;;;;;;;5.30;97.30;;;;;;5068543;28;19916;-70
2022/12/07 01:59:28;;;;;;;;;;;5.30;97.40;;;;;;5086462;28;19912;-71
2022/12/07 02:01:54;;;;;;;;;;;5.30;97.20;;;;;;5086048;28;19915;-70
2022/12/07 02:04:21;;;;;;;;;;;5.20;97.20;;;;;;5086068;28;19912;-70
2022/12/07 02:06:46;;;;;;;;;;;5.30;97.20;;;;;;5086254;28;20639;-71
2022/12/07 02:09:12;;;;;;;;;;;5.30;97.20;;;;;;5086333;28;19915;-70
2022/12/07 02:11:38;;;;;;;;;;;5.30;97.20;;;;;;5087296;28;19925;-71
2022/12/07 02:14:03;;;;;;;;;;;5.30;97.20;;;;;;5086599;28;20350;-70
2022/12/07 02:16:35;;;;;;;;;;;5.30;97.20;;;;;;5086486;28;19935;-71
2022/12/07 02:19:09;;;;;;;;;;;5.30;97.40;;;;;;5086812;28;20296;-70
2022/12/07 02:21:37;;;;;;;;;;;5.30;97.30;;;;;;5088253;28;19959;-70
2022/12/07 02:24:12;;;;;;;;;;;5.30;97.20;;;;;;5089629;28;19992;-71
2022/12/07 02:26:50;;;;;;;;;;;5.20;97.30;;;;;;5090140;28;19919;-71
2022/12/07 02:29:18;;;;;;;;;;;5.30;97.20;;;;;;5091567;28;19950;-71
2022/12/07 02:31:47;;;;;;;;;;;5.30;97.20;;;;;;5088800;28;19914;-71
2022/12/07 02:34:28;;;;;;;;;;;5.30;97.30;;;;;;5069668;28;19921;-71
2022/12/07 02:36:56;;;;;;;;;;;5.20;97.20;;;;;;5069625;28;19912;-71
2022/12/07 02:39:28;;;;;;;;;;;5.20;97.20;;;;;;5084097;28;19912;-71
2022/12/07 02:41:56;;;;;;;;;;;5.20;97.20;;;;;;5088498;28;20384;-71
2022/12/07 02:44:24;;;;;;;;;;;5.30;97.20;;;;;;5090987;28;19947;-71
2022/12/07 02:46:54;;;;;;;;;;;5.30;97.30;;;;;;5089904;28;19919;-71
2022/12/07 02:49:22;;;;;;;;;;;5.30;97.30;;;;;;5089680;28;20424;-71
2022/12/07 02:51:48;;;;;;;;;;;5.30;97.30;;;;;;5089455;28;20567;-71
2022/12/07 02:54:14;;;;;;;;;;;5.30;97.30;;;;;;5089465;28;19977;-70
2022/12/07 02:56:42;;;;;;;;;;;5.30;97.30;;;;;;5085100;28;20299;-71
2022/12/07 02:59:14;;;;;;;;;;;5.30;97.30;;;;;;5079873;28;19954;-71
2022/12/07 03:01:50;;;;;;;;;;;5.30;97.20;;;;;;5085136;28;19991;-70
2022/12/07 03:04:15;;;;;;;;;;;5.20;97.20;;;;;;5089315;28;19919;-71
2022/12/07 03:06:43;;;;;;;;;;;5.30;97.20;;;;;;5076189;28;19912;-71
2022/12/07 03:09:20;;;;;;;;;;;5.30;97.20;;;;;;5082391;28;20007;-70
2022/12/07 03:11:57;;;;;;;;;;;5.30;97.20;;;;;;5088730;28;20556;-71
2022/12/07 03:14:26;;;;;;;;;;;5.30;97.20;;;;;;5088206;28;20014;-71
2022/12/07 03:17:04;;;;;;;;;;;5.30;97.30;;;;;;5087829;28;19930;-70
2022/12/07 03:19:30;;;;;;;;;;;5.30;97.30;;;;;;5085010;28;19954;-71
2022/12/07 03:22:07;;;;;;;;;;;5.20;97.20;;;;;;5068719;28;19912;-70
2022/12/07 03:24:35;;;;;;;;;;;5.30;97.20;;;;;;5051021;28;20375;-71
2022/12/07 03:27:09;;;;;;;;;;;5.30;97.20;;;;;;5068817;28;19912;-71
2022/12/07 03:29:37;;;;;;;;;;;5.30;97.20;;;;;;5070110;28;20559;-71
2022/12/07 03:32:14;;;;;;;;;;;5.30;97.20;;;;;;5088402;28;19913;-70
2022/12/07 03:35:00;;;;;;;;;;;5.30;97.30;;;;;;5088943;28;20606;-71
2022/12/07 03:37:25;;;;;;;;;;;5.20;97.20;;;;;;5077392;28;19969;-71
2022/12/07 03:39:58;;;;;;;;;;;5.30;97.30;;;;;;5068031;28;20340;-71
2022/12/07 03:42:23;;;;;;;;;;;5.20;97.20;;;;;;5068216;28;19963;-71
2022/12/07 03:44:49;;;;;;;;;;;5.20;97.20;;;;;;5067950;28;19951;-70
2022/12/07 03:47:15;;;;;;;;;;;5.20;97.20;;;;;;5068063;28;20311;-71
2022/12/07 03:49:45;;;;;;;;;;;5.20;97.20;;;;;;5071729;28;19941;-71
2022/12/07 03:52:29;;;;;;;;;;;5.20;97.30;;;;;;5089024;28;19934;-71
2022/12/07 03:54:57;;;;;;;;;;;5.20;97.20;;;;;;5082011;28;20384;-71
2022/12/07 03:57:24;;;;;;;;;;;5.20;97.20;;;;;;5087954;28;19919;-71
2022/12/07 03:59:51;;;;;;;;;;;5.20;97.20;;;;;;5087854;28;19912;-71
2022/12/07 04:02:16;;;;;;;;;;;5.20;97.30;;;;;;5088244;28;19912;-71
2022/12/07 04:04:42;;;;;;;;;;;5.20;97.30;;;;;;5087790;28;19958;-71
2022/12/07 04:07:08;;;;;;;;;;;5.10;97.30;;;;;;5089137;28;19916;-71
2022/12/07 04:09:33;;;;;;;;;;;5.20;97.30;;;;;;5083632;28;19994;-70
2022/12/07 04:11:59;;;;;;;;;;;5.20;97.30;;;;;;5108519;28;20596;-71
2022/12/07 04:14:24;;;;;;;;;;;5.20;97.30;;;;;;5107697;28;19934;-71
2022/12/07 04:16:51;;;;;;;;;;;5.20;97.30;;;;;;5107308;28;19957;-70
2022/12/07 04:19:17;;;;;;;;;;;5.20;97.30;;;;;;5108242;28;19911;-71
2022/12/07 04:21:43;;;;;;;;;;;5.20;97.30;;;;;;5108587;28;19916;-71
2022/12/07 04:24:08;;;;;;;;;;;5.20;97.30;;;;;;5087956;28;19923;-71
2022/12/07 04:26:34;;;;;;;;;;;5.10;97.30;;;;;;5107952;28;19995;-71
2022/12/07 04:28:59;;;;;;;;;;;5.10;97.30;;;;;;5107873;28;19918;-70
2022/12/07 04:31:25;;;;;;;;;;;5.10;97.30;;;;;;5089698;28;20532;-71
2022/12/07 04:33:50;;;;;;;;;;;5.10;97.30;;;;;;5069061;28;20014;-70
2022/12/07 04:36:16;;;;;;;;;;;5.10;97.30;;;;;;5087098;28;19966;-71
2022/12/07 04:38:41;;;;;;;;;;;5.10;97.30;;;;;;5077180;28;19912;-71
2022/12/07 04:41:07;;;;;;;;;;;5.10;97.20;;;;;;5076065;28;19916;-70
2022/12/07 04:43:33;;;;;;;;;;;5.10;97.20;;;;;;5086763;28;19955;-71
2022/12/07 04:45:59;;;;;;;;;;;5.10;97.30;;;;;;5087182;28;19946;-70
2022/12/07 04:48:24;;;;;;;;;;;5.20;97.30;;;;;;5087228;28;19912;-70
2022/12/07 04:50:50;;;;;;;;;;;5.10;97.20;;;;;;5086846;28;20687;-71
2022/12/07 04:53:15;;;;;;;;;;;5.10;97.30;;;;;;5086885;28;19908;-70
2022/12/07 04:55:41;;;;;;;;;;;5.10;97.30;;;;;;5081274;28;20563;-71
2022/12/07 04:58:06;;;;;;;;;;;5.10;97.20;;;;;;5088648;28;19923;-70
2022/12/07 05:00:32;;;;;;;;;;;5.10;97.20;;;;;;5086661;28;19916;-70
2022/12/07 05:02:58;;;;;;;;;;;5.10;97.30;;;;;;5087189;28;19914;-71
2022/12/07 05:05:24;;;;;;;;;;;5.10;97.20;;;;;;5087108;28;19912;-71
2022/12/07 05:07:49;;;;;;;;;;;5.10;97.30;;;;;;5066168;28;19947;-70
2022/12/07 05:10:15;;;;;;;;;;;5.10;97.30;;;;;;5104806;28;19959;-71
2022/12/07 05:12:40;;;;;;;;;;;5.10;97.30;;;;;;5107373;28;19984;-71
2022/12/07 05:15:06;;;;;;;;;;;5.10;97.30;;;;;;5107226;28;19915;-71
2022/12/07 05:17:31;;;;;;;;;;;5.10;97.30;;;;;;5107241;28;19981;-70
2022/12/07 05:19:57;;;;;;;;;;;5.10;97.30;;;;;;5107212;28;19908;-70
2022/12/07 05:22:25;;;;;;;;;;;5.10;97.30;;;;;;5105924;28;19916;-71
2022/12/07 05:24:50;;;;;;;;;;;5.10;97.30;;;;;;5086564;28;19916;-70
2022/12/07 05:27:16;;;;;;;;;;;5.10;97.30;;;;;;5086870;28;20615;-70
2022/12/07 05:29:41;;;;;;;;;;;5.10;97.30;;;;;;5086300;28;19923;-70
2022/12/07 05:32:07;;;;;;;;;;;5.10;97.30;;;;;;5086839;28;19912;-70
2022/12/07 05:34:32;;;;;;;;;;;5.10;97.30;;;;;;5086694;28;19996;-71
2022/12/07 05:36:57;;;;;;;;;;;5.10;97.30;;;;;;5086748;28;19912;-71
2022/12/07 05:39:23;;;;;;;;;;;5.10;97.30;;;;;;5076228;28;19916;-71
2022/12/07 05:44:32;;;;;;;;;;;5.10;97.30;;;;;;5086317;28;19930;-71
2022/12/07 05:46:58;;;;;;;;;;;5.10;97.30;;;;;;5086566;28;19916;-71
2022/12/07 05:49:23;;;;;;;;;;;5.10;97.30;;;;;;5086065;28;19908;-71
2022/12/07 05:51:49;;;;;;;;;;;5.10;97.30;;;;;;5086483;28;19916;-71
2022/12/07 05:54:14;;;;;;;;;;;5.10;97.30;;;;;;5080056;28;19920;-71
2022/12/07 05:56:40;;;;;;;;;;;5.10;97.30;;;;;;5089415;28;19916;-71
2022/12/07 05:59:23;;;;;;;;;;;5.10;97.30;;;;;;5089739;28;19916;-71
2022/12/07 06:01:53;;;;;;;;;;;5.10;97.30;;;;;;5078737;28;19935;-71
2022/12/07 06:04:19;;;;;;;;;;;5.10;97.30;;;;;;5090217;28;20558;-70
2022/12/07 06:06:45;;;;;;;;;;;5.10;97.30;;;;;;5090524;28;19951;-71
2022/12/07 06:09:11;;;;;;;;;;;5.00;97.30;;;;;;5058411;28;19975;-71
2022/12/07 06:14:21;;;;;;;;;;;5.10;97.30;;;;;;5106800;28;20527;-70
2022/12/07 06:16:47;;;;;;;;;;;5.10;97.30;;;;;;5110692;28;19912;-70
2022/12/07 06:19:12;;;;;;;;;;;5.00;97.30;;;;;;5110431;28;19915;-70
2022/12/07 06:21:38;;;;;;;;;;;5.00;97.60;;;;;;5110343;28;20439;-71
2022/12/07 06:24:03;;;;;;;;;;;5.10;97.30;;;;;;5110447;28;19908;-70
2022/12/07 06:26:29;;;;;;;;;;;5.00;97.30;;;;;;5110353;28;19908;-70
2022/12/07 06:28:54;;;;;;;;;;;5.00;97.30;;;;;;5107940;28;19919;-71
2022/12/07 06:31:20;;;;;;;;;;;5.10;97.30;;;;;;5086974;28;19961;-71
2022/12/07 06:33:45;;;;;;;;;;;5.10;97.30;;;;;;5085275;28;19912;-70
2022/12/07 06:36:11;;;;;;;;;;;5.10;97.30;;;;;;5089996;28;19942;-71
2022/12/07 06:38:37;;;;;;;;;;;5.10;97.30;;;;;;5062128;28;19923;-71
2022/12/07 06:41:03;;;;;;;;;;;5.00;97.30;;;;;;5069211;28;19924;-71
2022/12/07 06:43:28;;;;;;;;;;;5.10;97.30;;;;;;5069338;28;19919;-71
2022/12/07 06:45:54;;;;;;;;;;;5.00;97.30;;;;;;5075615;28;19915;-71
2022/12/07 06:48:19;;;;;;;;;;;5.00;97.30;;;;;;5089707;28;20005;-71
2022/12/07 06:50:45;;;;;;;;;;;5.00;97.30;;;;;;5089252;28;19912;-71
2022/12/07 06:53:11;;;;;;;;;;;5.00;97.30;;;;;;5089132;28;19912;-71
2022/12/07 06:55:36;;;;;;;;;;;5.00;97.30;;;;;;5083521;28;19919;-71
2022/12/07 06:58:02;;;;;;;;;;;5.00;97.30;;;;;;5089352;28;20351;-71
2022/12/07 07:00:28;;;;;;;;;;;5.00;97.30;;;;;;5089219;28;19916;-71
2022/12/07 07:02:53;;;;;;;;;;;5.00;97.30;;;;;;5098186;28;19936;-72
2022/12/07 07:05:21;;;;;;;;;;;5.00;97.30;;;;;;5109914;28;19908;-71
2022/12/07 07:07:47;;;;;;;;;;;5.00;97.30;;;;;;5106973;28;19918;-71
2022/12/07 07:10:13;;;;;;;;;;;5.00;97.30;;;;;;5089126;28;19916;-71
2022/12/07 07:12:38;;;;;;;;;;;5.00;97.30;;;;;;5089235;28;20376;-70
2022/12/07 07:15:04;;;;;;;;;;;5.00;97.30;;;;;;5088795;28;19916;-71
2022/12/07 07:17:29;;;;;;;;;;;5.00;97.30;;;;;;5089224;28;19916;-71
2022/12/07 07:19:55;;;;;;;;;;;5.00;97.30;;;;;;5103088;28;19911;-71
2022/12/07 07:22:20;;;;;;;;;;;5.00;97.30;;;;;;5109596;28;19915;-71
2022/12/07 07:24:46;;;;;;;;;;;5.00;97.30;;;;;;5109384;28;20397;-71
2022/12/07 07:27:11;;;;;;;;;;;5.00;97.30;;;;;;5091166;28;20010;-71
2022/12/07 07:29:37;;;;;;;;;;;5.00;97.30;;;;;;5106418;28;19907;-71
2022/12/07 07:32:02;;;;;;;;;;;5.00;97.30;;;;;;5088718;28;19912;-71
2022/12/07 07:34:28;;;;;;;;;;;5.00;97.30;;;;;;5081269;28;19916;-70
2022/12/07 07:36:53;;;;;;;;;;;5.00;97.30;;;;;;5093815;28;19950;-71
2022/12/07 07:39:19;;;;;;;;;;;5.00;97.30;;;;;;5073025;28;19916;-70
2022/12/07 07:41:44;;;;;;;;;;;5.00;97.30;;;;;;5083278;28;20493;-71
2022/12/07 07:44:10;;;;;;;;;;;5.00;97.30;;;;;;5088248;28;19920;-71
2022/12/07 07:46:35;;;;;;;;;;;5.00;97.30;;;;;;5088681;28;19994;-71
2022/12/07 07:49:01;;;;;;;;;;;5.00;97.30;;;;;;5088730;28;19908;-71
2022/12/07 07:51:26;;;;;;;;;;;5.00;97.30;;;;;;5089473;28;19912;-71
2022/12/07 07:53:52;;;;;;;;;;;5.00;97.30;;;;;;5067375;28;19931;-71
2022/12/07 07:56:17;;;;;;;;;;;5.00;97.30;;;;;;5084688;28;19912;-71
2022/12/07 07:58:43;;;;;;;;;;;5.00;97.30;;;;;;5088589;28;19920;-71
2022/12/07 08:01:08;;;;;;;;;;;5.00;97.30;;;;;;5088053;28;20338;-71
2022/12/07 08:03:34;;;;;;;;;;;5.00;97.30;;;;;;5088373;28;20329;-71
2022/12/07 08:06:01;;;;;;;;;;;5.00;97.30;;;;;;5072357;28;19927;-71
2022/12/07 08:08:26;;;;;;;;;;;5.00;97.30;;;;;;5100422;28;20281;-71
2022/12/07 08:10:52;;;;;;;;;;;5.00;97.30;;;;;;5087011;28;19912;-71
2022/12/07 08:13:17;;;;;;;;;;;5.00;97.30;;;;;;5087451;28;20015;-71
2022/12/07 08:15:44;;;;;;;;;;;5.00;97.30;;;;;;5087718;28;19923;-71
2022/12/07 08:18:10;;;;;;;;;;;5.00;97.30;;;;;;5087122;28;20370;-71
2022/12/07 08:20:37;;;;;;;;;;;5.00;97.30;;;;;;5087454;28;19943;-71
2022/12/07 08:23:03;;;;;;;;;;;5.00;97.30;;;;;;5088976;28;20601;-71
2022/12/07 08:25:28;;;;;;;;;;;5.00;97.30;;;;;;5069259;28;19916;-71
2022/12/07 08:27:54;;;;;;;;;;;5.00;97.20;;;;;;5087608;28;19913;-71
2022/12/07 08:30:20;;;;;;;;;;;5.00;97.30;;;;;;5087011;28;20325;-71
2022/12/07 08:32:45;;;;;;;;;;;5.00;97.30;;;;;;5087070;28;20597;-71
2022/12/07 08:35:11;;;;;;;;;;;5.00;97.20;;;;;;5087634;28;19947;-71
2022/12/07 08:37:37;;;;;;;;;;;5.00;97.20;;;;;;5086565;28;19961;-71
2022/12/07 08:40:03;;;;;;;;;;;5.00;97.20;;;;;;5085443;28;19916;-71
2022/12/07 08:42:37;;;;;;;;;;;5.00;97.20;;;;;;5107044;28;20019;-71
2022/12/07 08:45:04;;;;;;;;;;;5.10;97.20;;;;;;5107323;28;19916;-71
2022/12/07 08:47:29;;;;;;;;;;;5.10;97.20;;;;;;5107595;28;20013;-71
2022/12/07 08:49:55;;;;;;;;;;;5.10;97.20;;;;;;5107432;28;19911;-70
2022/12/07 08:52:20;;;;;;;;;;;5.10;97.20;;;;;;5108036;28;19911;-71
2022/12/07 08:54:46;;;;;;;;;;;5.10;97.20;;;;;;5078657;28;20422;-71
2022/12/07 08:57:12;;;;;;;;;;;5.10;97.20;;;;;;5091956;28;19912;-70
2022/12/07 08:59:37;;;;;;;;;;;5.10;97.20;;;;;;5084000;28;19991;-70
2022/12/07 09:02:06;;;;;;;;;;;5.10;97.20;;;;;;5073592;28;19918;-71
2022/12/07 09:04:31;;;;;;;;;;;5.20;97.20;;;;;;5087052;28;20010;-71
2022/12/07 09:06:57;;;;;;;;;;;5.20;97.20;;;;;;5082462;28;20007;-71
2022/12/07 09:09:22;;;;;;;;;;;5.20;97.20;;;;;;5066511;28;20396;-71
2022/12/07 09:11:48;;;;;;;;;;;5.20;97.20;;;;;;5070593;28;19916;-70
2022/12/07 09:14:13;;;;;;;;;;;5.20;97.20;;;;;;5086687;28;19920;-71
2022/12/07 09:16:39;;;;;;;;;;;5.20;97.20;;;;;;5086988;28;20000;-70
2022/12/07 09:19:04;;;;;;;;;;;5.20;97.30;;;;;;5082396;28;19951;-70
2022/12/07 09:21:30;;;;;;;;;;;5.20;97.20;;;;;;5066559;28;20485;-71
2022/12/07 09:23:55;;;;;;;;;;;5.20;97.20;;;;;;5067113;28;19908;-71
2022/12/07 09:26:21;;;;;;;;;;;5.20;97.20;;;;;;5066724;28;20421;-71
2022/12/07 09:28:47;;;;;;;;;;;5.30;97.20;;;;;;5071394;28;20293;-70
2022/12/07 09:31:12;;;;;;;;;;;5.30;97.10;;;;;;5089638;28;19923;-70
2022/12/07 09:33:38;;;;;;;;;;;5.30;97.10;;;;;;5091075;28;19920;-70
2022/12/07 09:36:04;;;;;;;;;;;5.30;97.20;;;;;;5091110;28;19912;-71
2022/12/07 09:38:30;;;;;;;;;;;5.30;97.20;;;;;;5089786;28;19908;-71
2022/12/07 09:40:56;;;;;;;;;;;5.30;97.20;;;;;;5090606;28;20053;-70
2022/12/07 09:43:24;;;;;;;;;;;5.40;97.20;;;;;;5091388;28;20528;-70
2022/12/07 09:45:54;;;;;;;;;;;5.40;97.10;;;;;;5091888;28;19916;-71
2022/12/07 09:48:27;;;;;;;;;;;5.40;97.10;;;;;;5090930;28;19918;-71
2022/12/07 09:50:53;;;;;;;;;;;5.40;97.10;;;;;;5090348;28;20449;-70
2022/12/07 09:53:37;;;;;;;;;;;5.40;97.20;;;;;;5072093;28;20340;-70
2022/12/07 09:56:03;;;;;;;;;;;5.50;97.10;;;;;;5085292;28;20011;-71
2022/12/07 09:58:29;;;;;;;;;;;5.40;97.10;;;;;;5090385;28;19994;-70
2022/12/07 10:01:15;;;;;;;;;;;5.50;97.10;;;;;;5090192;28;19912;-71
2022/12/07 10:03:45;;;;;;;;;;;5.50;97.10;;;;;;5090727;28;19919;-71
2022/12/07 10:06:12;;;;;;;;;;;5.50;97.10;;;;;;5090580;28;20005;-71
2022/12/07 10:08:37;;;;;;;;;;;5.50;97.10;;;;;;5080670;28;19955;-71
2022/12/07 10:11:04;;;;;;;;;;;5.50;97.00;;;;;;5051800;28;19944;-71
2022/12/07 10:13:42;;;;;;;;;;;5.50;97.00;;;;;;5069991;28;20369;-71
2022/12/07 10:16:27;;;;;;;;;;;5.50;97.10;;;;;;5070096;28;19912;-71
2022/12/07 10:18:53;;;;;;;;;;;5.50;97.10;;;;;;5078586;28;20656;-70
2022/12/07 10:21:23;;;;;;;;;;;5.50;97.10;;;;;;5110392;28;19958;-71
2022/12/07 10:23:58;;;;;;;;;;;5.60;97.10;;;;;;5111289;28;20327;-70
2022/12/07 10:26:31;;;;;;;;;;;5.50;97.10;;;;;;5092157;28;19927;-70
2022/12/07 10:28:59;;;;;;;;;;;5.60;97.10;;;;;;5110790;28;19995;-70
2022/12/07 10:31:24;;;;;;;;;;;5.60;97.00;;;;;;5092717;28;19908;-70
2022/12/07 10:33:54;;;;;;;;;;;5.60;97.00;;;;;;5089931;28;19927;-71
2022/12/07 10:36:22;;;;;;;;;;;5.60;97.00;;;;;;5091304;28;20361;-70
2022/12/07 10:38:52;;;;;;;;;;;5.60;97.10;;;;;;5061014;28;19916;-71
2022/12/07 10:41:18;;;;;;;;;;;5.70;97.00;;;;;;5068651;28;19958;-70
2022/12/07 10:43:48;;;;;;;;;;;5.70;97.00;;;;;;5069482;28;20321;-70
2022/12/07 10:46:23;;;;;;;;;;;5.70;96.90;;;;;;5051526;28;19921;-70
2022/12/07 10:49:07;;;;;;;;;;;5.70;96.90;;;;;;5069637;28;19944;-70
2022/12/07 10:51:45;;;;;;;;;;;5.70;96.90;;;;;;5069084;28;19962;-70
2022/12/07 10:54:29;;;;;;;;;;;5.80;97.00;;;;;;5080570;28;20438;-70
2022/12/07 10:57:04;;;;;;;;;;;5.80;97.00;;;;;;5082943;28;19912;-70
2022/12/07 10:59:39;;;;;;;;;;;5.70;96.90;;;;;;5089503;28;19953;-70
2022/12/07 11:02:21;;;;;;;;;;;5.80;97.00;;;;;;5089439;28;19919;-71
2022/12/07 11:04:56;;;;;;;;;;;5.80;96.90;;;;;;5089482;28;19908;-70
2022/12/07 11:07:22;;;;;;;;;;;5.80;96.90;;;;;;5089573;28;20675;-70
2022/12/07 11:09:54;;;;;;;;;;;5.80;96.90;;;;;;5082348;28;20014;-70
2022/12/07 11:12:41;;;;;;;;;;;5.80;96.90;;;;;;5089155;28;20376;-70
2022/12/07 11:15:06;;;;;;;;;;;5.80;97.10;;;;;;5089210;28;19917;-71
2022/12/07 11:17:37;;;;;;;;;;;5.90;97.00;;;;;;5089631;28;19924;-71
2022/12/07 11:20:18;;;;;;;;;;;5.90;97.30;;;;;;5089087;28;19970;-71
2022/12/07 11:22:51;;;;;;;;;;;5.90;96.90;;;;;;5089208;28;19912;-71
2022/12/07 11:25:20;;;;;;;;;;;5.90;96.90;;;;;;5089138;28;19973;-70
2022/12/07 11:27:57;;;;;;;;;;;5.90;96.90;;;;;;5090007;28;19962;-71
2022/12/07 11:30:26;;;;;;;;;;;5.90;96.90;;;;;;5088528;28;19942;-70
2022/12/07 11:32:58;;;;;;;;;;;5.90;96.90;;;;;;5088709;28;19912;-71
2022/12/07 11:35:23;;;;;;;;;;;6.00;96.90;;;;;;5088561;28;19920;-70
2022/12/07 11:37:51;;;;;;;;;;;6.00;96.90;;;;;;5088637;28;19921;-70
2022/12/07 11:40:16;;;;;;;;;;;6.00;96.80;;;;;;5088463;28;19919;-70
2022/12/07 11:42:48;;;;;;;;;;;6.00;96.80;;;;;;5089738;28;20351;-70
2022/12/07 11:45:13;;;;;;;;;;;6.00;96.80;;;;;;5088285;28;20087;-70
2022/12/07 11:47:43;;;;;;;;;;;6.00;96.90;;;;;;5088587;28;20361;-70
2022/12/07 11:50:18;;;;;;;;;;;6.10;96.80;;;;;;5088172;28;19912;-70
2022/12/07 11:52:53;;;;;;;;;;;6.10;96.70;;;;;;5088288;28;19909;-70
2022/12/07 11:55:21;;;;;;;;;;;6.20;96.70;;;;;;5081840;28;19920;-70
2022/12/07 11:57:50;;;;;;;;;;;6.20;96.60;;;;;;5088495;28;19907;-70
2022/12/07 12:00:16;;;;;;;;;;;6.20;96.60;;;;;;5089294;28;19958;-70
2022/12/07 12:02:51;;;;;;;;;;;6.20;96.70;;;;;;5088129;28;19977;-70
2022/12/07 12:05:16;;;;;;;;;;;6.20;96.60;;;;;;5088434;28;19912;-70
2022/12/07 12:07:43;;;;;;;;;;;6.20;96.70;;;;;;5086465;28;20461;-70
2022/12/07 12:10:18;;;;;;;;;;;6.20;96.80;;;;;;5067881;28;19993;-70
2022/12/07 12:12:52;;;;;;;;;;;6.20;97.00;;;;;;5067861;28;19966;-70
2022/12/07 12:15:48;;;;;;;;;;;6.20;96.70;;;;;;5067819;28;19970;-70
2022/12/07 12:18:39;;;;;;;;;;;6.20;96.90;;;;;;5088139;28;19927;-70
2022/12/07 12:21:10;;;;;;;;;;;6.20;96.70;;;;;;5084383;28;20392;-70
2022/12/07 12:23:44;;;;;;;;;;;6.20;96.80;;;;;;5088042;28;20363;-70
2022/12/07 12:26:20;;;;;;;;;;;6.20;96.90;;;;;;5087499;28;19936;-70
2022/12/07 12:28:51;;;;;;;;;;;6.20;96.90;;;;;;5087841;28;19919;-70
2022/12/07 12:31:20;;;;;;;;;;;6.20;96.90;;;;;;5085291;28;19912;-70
2022/12/07 12:33:50;;;;;;;;;;;6.20;96.90;;;;;;5092137;28;20285;-70
2022/12/07 12:36:15;;;;;;;;;;;6.20;96.80;;;;;;5078155;28;19912;-70
2022/12/07 12:38:49;;;;;;;;;;;6.20;96.90;;;;;;5087789;28;19914;-70
2022/12/07 12:41:33;;;;;;;;;;;6.20;96.80;;;;;;5087283;28;19919;-70
2022/12/07 12:43:59;;;;;;;;;;;6.10;96.90;;;;;;5087241;28;20361;-71
2022/12/07 12:46:34;;;;;;;;;;;6.20;96.80;;;;;;5087319;28;19985;-70
2022/12/07 12:49:15;;;;;;;;;;;6.20;96.80;;;;;;5088673;28;19915;-70
2022/12/07 12:51:46;;;;;;;;;;;6.20;96.80;;;;;;5087263;28;20026;-70
2022/12/07 12:54:18;;;;;;;;;;;6.20;96.80;;;;;;5087616;28;20348;-70
2022/12/07 12:56:43;;;;;;;;;;;6.20;96.80;;;;;;5087121;28;19916;-70
2022/12/07 12:59:22;;;;;;;;;;;6.20;96.80;;;;;;5087349;28;20552;-70
2022/12/07 13:01:48;;;;;;;;;;;6.20;96.70;;;;;;5055015;28;19912;-70
2022/12/07 13:04:17;;;;;;;;;;;6.20;96.70;;;;;;5087030;28;19912;-70
2022/12/07 13:06:42;;;;;;;;;;;6.30;96.70;;;;;;5088218;28;20634;-70
2022/12/07 13:09:17;;;;;;;;;;;6.30;96.70;;;;;;5100429;28;19920;-70
2022/12/07 13:11:44;;;;;;;;;;;6.30;96.70;;;;;;5106842;28;19916;-70
2022/12/07 13:14:28;;;;;;;;;;;6.30;96.80;;;;;;5096373;28;19941;-70
2022/12/07 13:16:56;;;;;;;;;;;6.30;96.80;;;;;;5085451;28;21472;-70
2022/12/07 13:19:40;;;;;;;;;;;6.20;96.70;;;;;;5085856;28;20007;-70
2022/12/07 13:22:25;;;;;;;;;;;6.20;96.70;;;;;;5067654;28;20288;-70
2022/12/07 13:24:55;;;;;;;;;;;6.30;96.80;;;;;;5085867;28;19919;-70
2022/12/07 13:27:21;;;;;;;;;;;6.30;97.10;;;;;;5086785;28;19912;-70
2022/12/07 13:29:47;;;;;;;;;;;6.30;96.80;;;;;;5103022;28;19908;-70
2022/12/07 13:32:26;;;;;;;;;;;6.30;96.70;;;;;;5086095;28;19917;-70
2022/12/07 13:34:51;;;;;;;;;;;6.30;96.80;;;;;;5086078;28;20007;-70
2022/12/07 13:37:17;;;;;;;;;;;6.30;96.90;;;;;;5085729;28;20610;-70
2022/12/07 13:39:50;;;;;;;;;;;6.30;96.80;;;;;;5066920;28;19916;-70
2022/12/07 13:42:22;;;;;;;;;;;6.30;96.80;;;;;;5065590;28;20574;-70
2022/12/07 13:44:47;;;;;;;;;;;6.30;96.80;;;;;;5077546;28;19919;-70
2022/12/07 13:47:13;;;;;;;;;;;6.30;96.80;;;;;;5085970;28;19920;-70
2022/12/07 13:49:45;;;;;;;;;;;6.30;96.80;;;;;;5085555;28;20007;-70
2022/12/07 13:52:16;;;;;;;;;;;6.30;96.80;;;;;;5085756;28;19912;-70
2022/12/07 13:55:08;;;;;;;;;;;6.30;96.80;;;;;;5065902;28;19916;-70
2022/12/07 13:57:34;;;;;;;;;;;6.30;96.70;;;;;;5081010;28;19969;-70
2022/12/07 14:00:01;;;;;;;;;;;6.30;96.80;;;;;;5085589;28;19986;-70
2022/12/07 14:02:31;;;;;;;;;;;6.30;96.80;;;;;;5090746;28;20019;-70
2022/12/07 14:05:09;;;;;;;;;;;6.30;96.80;;;;;;5080433;28;19916;-70
2022/12/07 14:07:35;;;;;;;;;;;6.30;96.80;;;;;;5084749;28;20003;-70
2022/12/07 14:10:03;;;;;;;;;;;6.30;96.80;;;;;;5085952;28;19912;-70
2022/12/07 14:12:29;;;;;;;;;;;6.30;96.80;;;;;;5086030;28;20369;-70
2022/12/07 14:14:55;;;;;;;;;;;6.30;96.80;;;;;;5086339;28;20368;-69
2022/12/07 14:17:22;;;;;;;;;;;6.30;96.90;;;;;;5092429;28;19922;-70
2022/12/07 14:19:49;;;;;;;;;;;6.30;96.90;;;;;;5110179;28;19958;-70
2022/12/07 14:22:23;;;;;;;;;;;6.30;96.90;;;;;;5110555;28;20026;-69
2022/12/07 14:24:49;;;;;;;;;;;6.20;96.90;;;;;;5110839;28;19955;-70
2022/12/07 14:27:22;;;;;;;;;;;6.20;97.00;;;;;;5110529;28;20583;-70
2022/12/07 14:29:48;;;;;;;;;;;6.20;97.00;;;;;;5106590;28;20372;-70
2022/12/07 14:32:18;;;;;;;;;;;6.20;97.10;;;;;;5089868;28;20003;-70
2022/12/07 14:34:54;;;;;;;;;;;6.20;97.10;;;;;;5102293;28;20375;-70
2022/12/07 14:37:19;;;;;;;;;;;6.10;97.10;;;;;;5110254;28;19912;-70
2022/12/07 14:39:45;;;;;;;;;;;6.10;97.20;;;;;;5090621;28;19919;-70
2022/12/07 14:42:10;;;;;;;;;;;6.10;97.20;;;;;;5089303;28;20607;-70
2022/12/07 14:44:35;;;;;;;;;;;6.10;97.20;;;;;;5089636;28;19919;-70